Pagrindinis puslapis
METAR-TAF:

METAR-TAF

Oro uostai :

Stokholmas-Arlanda, Švedija

platuma: 59-39N, ilguma: 017-57E, Aukštis: 38 m

Dabartinis oras

Ataskaita buvo paskelbta 21 minutes, ne 08:50 UTC
Vėjas 12 kt iš Pietvakarių
Temperatūra 2°C
Drėgmė 75%
Slėgis 1027 hPa
Matomumas 10 km arba daugiau
nėra debesų žemiau 1500 m ir nėra kamuolinių lietaus debesų

METAR: ESSA 200850Z 23012KT CAVOK 02/M02 Q1027 R01L/19//95 R08/19//95 R01R/19//95 NOSIG

Laikas: 10:11 (09:11 UTC)

Prognozė

Ataskaita buvo paskelbta 3 valandos ir 41 minutes, ne 05:30 UTC
Prognozė galioja nuo 20 metu 06 UTC su 21 metu 06 UTC
Vėjas 10 kt iš Vakarų/Pietvakarių
Matomumas 10 km arba daugiau
nėra debesų žemiau 1500 m ir nėra kamuolinių lietaus debesų
Tapsmas
nuo 20 metu 18 UTC su 20 metu 20 UTC
Vėjas 15 kt iš Vakarų su gūsio iki 25 kt

TAF: ESSA 200530Z 2006/2106 24010KT CAVOK BECMG 2018/2020 26015G25KT

Orai ataskaitas ir orų prognozės (METAR, TAF).

turimą stotys yra geltonos ir raudonos taškus žemėlapyje.

Perkelti pele per norėdami pamatyti stoties vardą.

Tada spustelėkite, norėdami matyti oro stebėjimo ir prognozės.

Norėdami pakeisti žemėlapį: spustelėkite ant žalios mygtukų su juodo kryžiaus žemyn,; žalią mygtuką su brūkšneliu, jei norite nutolinti; arba žalių rodyklių gretimoms žemėlapius.


METAR-TAF: